createdAt,value
2023-04-02T00:01:28.097Z,4.90
2023-04-02T00:04:22.321Z,4.30
2023-04-02T00:06:57.282Z,4.00
2023-04-02T00:09:37.513Z,4.40
2023-04-02T00:12:24.396Z,4.20
2023-04-02T00:14:58.211Z,5.60
2023-04-02T00:17:29.592Z,4.90
2023-04-02T00:20:06.666Z,4.90
2023-04-02T00:22:44.681Z,5.00
2023-04-02T00:25:16.911Z,4.70
2023-04-02T00:27:49.006Z,4.70
2023-04-02T00:30:20.099Z,5.10
2023-04-02T00:32:52.768Z,4.90
2023-04-02T00:35:27.690Z,5.10
2023-04-02T00:37:59.474Z,5.30
2023-04-02T00:40:33.009Z,5.00
2023-04-02T00:43:07.274Z,4.40
2023-04-02T00:45:40.322Z,4.20
2023-04-02T00:48:30.135Z,5.10
2023-04-02T00:51:09.297Z,5.30
2023-04-02T00:53:42.991Z,4.80
2023-04-02T00:56:20.927Z,4.40
2023-04-02T00:58:57.040Z,5.30
2023-04-02T01:01:34.324Z,4.70
2023-04-02T01:04:06.804Z,5.30
2023-04-02T01:06:39.618Z,5.20
2023-04-02T01:09:23.824Z,6.00
2023-04-02T01:12:22.643Z,6.60
2023-04-02T01:15:02.342Z,6.00
2023-04-02T01:17:48.950Z,6.50
2023-04-02T01:20:57.276Z,7.00
2023-04-02T01:23:35.638Z,4.70
2023-04-02T01:26:18.116Z,3.90
2023-04-02T01:29:01.631Z,3.90
2023-04-02T01:31:34.306Z,5.40
2023-04-02T01:34:07.708Z,4.30
2023-04-02T01:36:44.970Z,4.50
2023-04-02T01:39:28.909Z,4.10
2023-04-02T01:42:09.295Z,4.40
2023-04-02T01:44:44.093Z,6.30
2023-04-02T01:47:18.358Z,4.10
2023-04-02T01:49:50.165Z,4.60
2023-04-02T01:52:36.438Z,4.30
2023-04-02T01:55:09.691Z,4.70
2023-04-02T01:57:42.126Z,5.00
2023-04-02T02:00:17.782Z,4.60
2023-04-02T02:02:51.726Z,4.30
2023-04-02T02:05:24.684Z,4.70
2023-04-02T02:07:58.068Z,4.10
2023-04-02T02:10:34.491Z,4.20
2023-04-02T02:13:07.366Z,4.00
2023-04-02T02:15:38.517Z,4.30
2023-04-02T02:18:12.798Z,3.10
2023-04-02T02:20:44.599Z,2.60
2023-04-02T02:23:17.102Z,2.20
2023-04-02T02:25:50.003Z,1.60
2023-04-02T02:28:25.023Z,1.80
2023-04-02T02:31:00.010Z,1.20
2023-04-02T02:33:33.811Z,1.00
2023-04-02T02:36:11.242Z,1.20
2023-04-02T02:38:54.277Z,1.00
2023-04-02T02:41:32.196Z,0.90
2023-04-02T02:44:12.320Z,0.80
2023-04-02T02:46:49.767Z,1.00
2023-04-02T02:49:25.443Z,1.10
2023-04-02T02:52:03.028Z,1.20
2023-04-02T02:54:36.334Z,1.00
2023-04-02T02:57:12.818Z,1.30
2023-04-02T02:59:45.187Z,1.10
2023-04-02T03:02:17.391Z,1.00
2023-04-02T03:04:53.215Z,0.60
2023-04-02T03:07:26.877Z,1.10
2023-04-02T03:10:05.625Z,1.10
2023-04-02T03:12:48.332Z,1.00
2023-04-02T03:15:33.696Z,0.90
2023-04-02T03:18:08.970Z,0.80
2023-04-02T03:20:48.682Z,0.90
2023-04-02T03:23:24.934Z,1.30
2023-04-02T03:26:01.814Z,0.80
2023-04-02T03:28:35.962Z,1.20
2023-04-02T03:31:10.357Z,1.10
2023-04-02T03:33:45.717Z,0.90
2023-04-02T03:36:22.819Z,1.00
2023-04-02T03:38:57.915Z,1.10
2023-04-02T03:41:34.982Z,0.90
2023-04-02T03:46:43.107Z,0.80
2023-04-02T03:49:20.718Z,0.90
2023-04-02T03:51:58.740Z,0.90
2023-04-02T03:54:31.518Z,0.90
2023-04-02T03:57:03.726Z,1.10
2023-04-02T03:59:42.819Z,0.80
2023-04-02T04:02:29.572Z,0.60
2023-04-02T04:05:01.975Z,0.80
2023-04-02T04:07:37.787Z,0.50
2023-04-02T04:10:18.104Z,0.60
2023-04-02T04:12:53.034Z,0.40
2023-04-02T04:15:28.291Z,0.80
2023-04-02T04:18:04.373Z,0.50
2023-04-02T04:20:45.988Z,0.50
2023-04-02T04:23:26.037Z,0.30
2023-04-02T04:26:09.710Z,0.30
2023-04-02T04:28:48.477Z,0.40
2023-04-02T04:31:30.967Z,0.30
2023-04-02T04:34:09.979Z,0.30
2023-04-02T04:36:48.125Z,0.40
2023-04-02T04:39:23.514Z,0.30
2023-04-02T04:41:56.259Z,0.40
2023-04-02T04:44:39.233Z,0.30
2023-04-02T04:47:16.599Z,0.30
2023-04-02T04:49:53.401Z,0.40
2023-04-02T04:52:27.590Z,0.20
2023-04-02T04:54:58.545Z,0.30
2023-04-02T04:57:35.645Z,0.50
2023-04-02T05:00:15.817Z,0.40
2023-04-02T05:02:51.757Z,0.40
2023-04-02T05:05:26.161Z,0.40
2023-04-02T05:08:05.885Z,0.30
2023-04-02T05:10:43.224Z,0.20
2023-04-02T05:15:56.124Z,0.20
2023-04-02T05:18:33.414Z,0.30
2023-04-02T05:23:47.333Z,0.40
2023-04-02T05:26:22.015Z,0.30
2023-04-02T05:28:58.417Z,0.40
2023-04-02T05:31:39.111Z,0.20
2023-04-02T05:34:12.384Z,0.40
2023-04-02T05:36:47.022Z,0.40
2023-04-02T05:39:24.355Z,0.30
2023-04-02T05:42:04.574Z,0.20
2023-04-02T05:44:39.220Z,0.30
2023-04-02T05:47:15.465Z,0.30
2023-04-02T05:49:51.666Z,0.40
2023-04-02T05:52:29.027Z,0.10
2023-04-02T05:55:06.493Z,0.40
2023-04-02T05:57:46.841Z,0.20
2023-04-02T06:00:26.565Z,0.40
2023-04-02T06:03:02.016Z,0.30
2023-04-02T06:05:39.487Z,0.30
2023-04-02T06:08:16.374Z,0.40
2023-04-02T06:10:54.708Z,0.30
2023-04-02T06:13:26.313Z,0.50
2023-04-02T06:15:57.646Z,0.40
2023-04-02T06:18:32.025Z,0.30
2023-04-02T06:21:04.109Z,0.20
2023-04-02T06:23:41.287Z,0.20
2023-04-02T06:26:18.062Z,0.40
2023-04-02T06:29:15.306Z,0.50
2023-04-02T06:31:51.115Z,0.30
2023-04-02T06:34:24.950Z,0.40
2023-04-02T06:36:59.805Z,0.30
2023-04-02T06:39:31.305Z,0.40
2023-04-02T06:42:05.819Z,0.30
2023-04-02T06:44:38.843Z,0.20
2023-04-02T06:47:18.625Z,0.10
2023-04-02T06:49:54.815Z,0.50
2023-04-02T06:52:29.802Z,0.30
2023-04-02T06:55:01.188Z,0.40
2023-04-02T06:57:36.024Z,0.30
2023-04-02T07:00:19.975Z,0.30
2023-04-02T07:02:52.077Z,0.40
2023-04-02T07:05:23.422Z,0.30
2023-04-02T07:07:54.649Z,0.40
2023-04-02T07:12:55.473Z,0.30
2023-04-02T07:15:26.719Z,0.60
2023-04-02T07:17:59.370Z,0.50
2023-04-02T07:20:33.815Z,0.30
2023-04-02T07:23:05.136Z,0.50
2023-04-02T07:25:36.664Z,0.60
2023-04-02T07:28:08.188Z,0.40
2023-04-02T07:30:39.793Z,0.40
2023-04-02T07:33:14.067Z,0.40
2023-04-02T07:35:45.414Z,0.50
2023-04-02T07:38:16.602Z,0.30
2023-04-02T07:40:47.921Z,0.30
2023-04-02T07:43:19.161Z,0.30
2023-04-02T07:45:50.782Z,0.60
2023-04-02T07:48:21.976Z,0.40
2023-04-02T07:53:32.601Z,0.50
2023-04-02T07:56:05.924Z,0.30
2023-04-02T07:58:37.073Z,0.40
2023-04-02T08:01:15.780Z,0.30
2023-04-02T08:03:47.603Z,0.30
2023-04-02T08:06:19.241Z,0.20
2023-04-02T08:08:50.500Z,0.40
2023-04-02T08:11:21.734Z,0.40
2023-04-02T08:13:53.176Z,0.30
2023-04-02T08:16:25.555Z,0.30
2023-04-02T08:18:56.950Z,0.50
2023-04-02T08:21:29.491Z,0.10
2023-04-02T08:24:00.691Z,0.30
2023-04-02T08:26:32.112Z,0.40
2023-04-02T08:29:03.217Z,0.30
2023-04-02T08:31:34.816Z,0.30
2023-04-02T08:34:06.069Z,0.30
2023-04-02T08:39:11.871Z,0.30
2023-04-02T08:41:51.991Z,0.50
2023-04-02T08:44:38.057Z,0.40
2023-04-02T08:47:11.152Z,0.50
2023-04-02T08:49:50.915Z,0.50
2023-04-02T08:52:27.025Z,0.70
2023-04-02T08:55:00.504Z,0.70
2023-04-02T08:57:40.933Z,0.80
2023-04-02T09:00:27.646Z,0.70
2023-04-02T09:03:03.615Z,0.80
2023-04-02T09:05:38.644Z,0.80
2023-04-02T09:08:20.047Z,0.90
2023-04-02T09:10:56.697Z,0.80
2023-04-02T09:13:30.259Z,0.70
2023-04-02T09:16:08.944Z,1.10
2023-04-02T09:18:42.182Z,1.20
2023-04-02T09:21:34.758Z,0.90
2023-04-02T09:24:06.677Z,1.00
2023-04-02T09:26:38.241Z,1.10
2023-04-02T09:29:38.066Z,0.80
2023-04-02T09:32:30.970Z,1.30
2023-04-02T09:35:26.272Z,1.00
2023-04-02T09:38:24.783Z,1.30
2023-04-02T09:41:02.853Z,0.90
2023-04-02T09:43:35.775Z,1.30
2023-04-02T09:46:15.906Z,1.20
2023-04-02T09:48:54.367Z,1.10
2023-04-02T09:51:27.104Z,0.90
2023-04-02T09:54:14.431Z,1.10
2023-04-02T09:57:02.796Z,0.80
2023-04-02T09:59:33.902Z,0.70
2023-04-02T10:02:06.508Z,1.10
2023-04-02T10:04:44.325Z,0.90
2023-04-02T10:07:35.530Z,1.00
2023-04-02T10:10:21.166Z,1.20
2023-04-02T10:13:01.059Z,1.10
2023-04-02T10:15:40.670Z,0.90
2023-04-02T10:18:19.323Z,1.00
2023-04-02T10:20:52.948Z,0.90
2023-04-02T10:23:30.596Z,1.10
2023-04-02T10:26:10.539Z,0.70
2023-04-02T10:29:10.839Z,1.10
2023-04-02T10:31:50.340Z,1.20
2023-04-02T10:34:25.977Z,1.10
2023-04-02T10:36:59.378Z,1.20
2023-04-02T10:39:40.545Z,1.10
2023-04-02T10:42:24.277Z,0.90
2023-04-02T10:45:02.263Z,0.90
2023-04-02T10:47:44.847Z,1.10
2023-04-02T10:50:32.598Z,1.10
2023-04-02T10:53:12.542Z,1.00
2023-04-02T10:55:49.578Z,1.10
2023-04-02T11:01:17.071Z,1.00
2023-04-02T11:03:57.832Z,1.20
2023-04-02T11:06:37.620Z,1.00
2023-04-02T11:09:17.097Z,1.00
2023-04-02T11:11:51.708Z,1.00
2023-04-02T11:14:26.067Z,1.30
2023-04-02T11:17:00.743Z,0.90
2023-04-02T11:19:33.137Z,1.00
2023-04-02T11:22:06.878Z,1.00
2023-04-02T11:24:47.020Z,0.90
2023-04-02T11:27:29.019Z,1.10
2023-04-02T11:30:13.027Z,1.20
2023-04-02T11:32:47.412Z,1.10
2023-04-02T11:35:40.630Z,1.00
2023-04-02T11:38:46.470Z,1.10
2023-04-02T11:41:37.278Z,0.90
2023-04-02T11:44:22.919Z,0.80
2023-04-02T11:46:54.237Z,1.00
2023-04-02T11:50:01.423Z,1.10
2023-04-02T11:52:37.218Z,0.90
2023-04-02T11:55:31.989Z,0.90
2023-04-02T12:01:16.335Z,0.60
2023-04-02T12:04:00.273Z,1.00
2023-04-02T12:06:42.478Z,1.00
2023-04-02T12:09:22.647Z,1.00
2023-04-02T12:12:00.343Z,0.90
2023-04-02T12:14:47.214Z,1.10
2023-04-02T12:17:27.251Z,1.00
2023-04-02T12:20:02.754Z,0.80
2023-04-02T12:22:37.009Z,1.00
2023-04-02T12:25:22.853Z,1.00
2023-04-02T12:28:11.545Z,1.00
2023-04-02T12:30:43.728Z,1.30
2023-04-02T12:33:35.481Z,1.00
2023-04-02T12:36:18.451Z,1.20
2023-04-02T12:38:56.435Z,1.10
2023-04-02T12:41:30.964Z,1.00
2023-04-02T12:44:04.555Z,1.20
2023-04-02T12:46:36.874Z,0.90
2023-04-02T12:49:12.726Z,1.20
2023-04-02T12:51:45.407Z,1.10
2023-04-02T12:54:19.694Z,1.00
2023-04-02T12:56:51.755Z,1.00
2023-04-02T12:59:36.117Z,1.20
2023-04-02T13:02:21.665Z,1.10
2023-04-02T13:04:54.740Z,1.00
2023-04-02T13:07:28.158Z,1.00
2023-04-02T13:10:01.346Z,1.00
2023-04-02T13:12:36.409Z,1.10
2023-04-02T13:15:10.201Z,1.30
2023-04-02T13:17:47.313Z,1.10
2023-04-02T13:20:36.868Z,0.80
2023-04-02T13:23:33.718Z,1.00
2023-04-02T13:26:15.929Z,1.00
2023-04-02T13:28:58.570Z,1.30
2023-04-02T13:31:30.931Z,2.80
2023-04-02T13:34:02.503Z,1.40
2023-04-02T13:36:34.428Z,1.30
2023-04-02T13:39:06.189Z,1.80
2023-04-02T13:41:41.462Z,2.20
2023-04-02T13:44:21.184Z,2.30
2023-04-02T13:46:53.003Z,2.00
2023-04-02T13:49:25.324Z,2.80
2023-04-02T13:51:59.240Z,1.80
2023-04-02T13:54:39.580Z,1.40
2023-04-02T13:57:11.665Z,1.70
2023-04-02T13:59:43.150Z,1.60
2023-04-02T14:02:19.023Z,4.30
2023-04-02T14:04:54.232Z,2.10
2023-04-02T14:07:37.443Z,2.80
2023-04-02T14:10:24.051Z,3.40
2023-04-02T14:13:12.327Z,3.10
2023-04-02T14:16:00.168Z,1.50
2023-04-02T14:18:47.916Z,1.30
2023-04-02T14:21:34.281Z,3.40
2023-04-02T14:24:17.388Z,2.00
2023-04-02T14:27:02.339Z,1.70
2023-04-02T14:29:39.068Z,1.10
2023-04-02T14:32:16.180Z,1.90
2023-04-02T14:35:04.381Z,1.20
2023-04-02T14:37:44.208Z,1.20
2023-04-02T14:40:28.293Z,1.10
2023-04-02T14:43:04.690Z,1.00
2023-04-02T14:45:57.049Z,1.00
2023-04-02T14:48:43.288Z,1.10
2023-04-02T14:51:25.804Z,1.10
2023-04-02T14:54:05.788Z,1.00
2023-04-02T14:56:46.588Z,1.20
2023-04-02T14:59:29.182Z,0.80
2023-04-02T15:02:04.629Z,0.90
2023-04-02T15:05:01.614Z,1.30
2023-04-02T15:07:41.006Z,1.20
2023-04-02T15:10:23.344Z,1.00
2023-04-02T15:12:59.335Z,0.90
2023-04-02T15:15:43.239Z,1.10
2023-04-02T15:18:18.091Z,0.90
2023-04-02T15:21:01.440Z,0.90
2023-04-02T15:26:19.723Z,0.90
2023-04-02T15:28:57.869Z,0.70
2023-04-02T15:31:31.044Z,1.00
2023-04-02T15:34:18.179Z,1.10
2023-04-02T15:37:05.886Z,0.80
2023-04-02T15:39:51.028Z,0.90
2023-04-02T15:42:31.046Z,1.20
2023-04-02T15:45:20.851Z,1.30
2023-04-02T15:48:12.692Z,1.00
2023-04-02T15:50:53.319Z,1.10
2023-04-02T15:53:35.550Z,1.30
2023-04-02T15:56:22.578Z,0.70
2023-04-02T15:59:13.186Z,0.90
2023-04-02T16:01:55.114Z,1.00
2023-04-02T16:04:44.131Z,0.70
2023-04-02T16:07:32.528Z,0.80
2023-04-02T16:10:13.122Z,0.60
2023-04-02T16:12:44.673Z,1.10
2023-04-02T16:15:23.772Z,1.00
2023-04-02T16:18:01.160Z,0.70
2023-04-02T16:20:37.887Z,1.00
2023-04-02T16:23:15.178Z,0.70
2023-04-02T16:28:25.578Z,0.80
2023-04-02T16:31:03.754Z,0.90
2023-04-02T16:33:45.655Z,0.90
2023-04-02T16:36:36.682Z,0.60
2023-04-02T16:39:14.931Z,1.20
2023-04-02T16:42:00.497Z,0.70
2023-04-02T16:44:43.768Z,0.90
2023-04-02T16:47:45.895Z,1.00
2023-04-02T16:50:27.199Z,0.80
2023-04-02T16:53:08.245Z,0.90
2023-04-02T16:55:48.013Z,1.00
2023-04-02T16:58:32.515Z,1.10
2023-04-02T17:01:11.726Z,0.60
2023-04-02T17:03:56.869Z,1.10
2023-04-02T17:06:42.207Z,1.10
2023-04-02T17:09:19.923Z,0.90
2023-04-02T17:14:40.000Z,0.60
2023-04-02T17:17:15.732Z,0.70
2023-04-02T17:19:48.836Z,0.90
2023-04-02T17:22:22.971Z,0.90
2023-04-02T17:24:58.262Z,0.80
2023-04-02T17:27:34.428Z,0.90
2023-04-02T17:30:14.113Z,1.00
2023-04-02T17:32:46.593Z,1.30
2023-04-02T17:35:23.979Z,0.90
2023-04-02T17:38:01.324Z,1.20
2023-04-02T17:40:42.828Z,1.00
2023-04-02T17:43:20.324Z,1.20
2023-04-02T17:45:56.267Z,1.00
2023-04-02T17:48:35.734Z,1.40
2023-04-02T17:51:11.958Z,1.00
2023-04-02T17:53:51.442Z,1.30
2023-04-02T17:56:38.975Z,1.10
2023-04-02T17:59:29.104Z,1.20
2023-04-02T18:02:12.639Z,1.30
2023-04-02T18:04:53.325Z,0.90
2023-04-02T18:07:40.528Z,1.40
2023-04-02T18:10:21.138Z,1.00
2023-04-02T18:13:05.954Z,1.00
2023-04-02T18:16:02.999Z,0.90
2023-04-02T18:18:47.123Z,1.20
2023-04-02T18:21:30.307Z,1.10
2023-04-02T18:24:22.190Z,1.10
2023-04-02T18:27:03.824Z,0.90
2023-04-02T18:29:44.258Z,0.80
2023-04-02T18:32:32.665Z,1.60
2023-04-02T18:35:14.613Z,15.40
2023-04-02T18:37:59.262Z,9.20
2023-04-02T18:40:40.057Z,19.30
2023-04-02T18:43:22.140Z,5.90
2023-04-02T18:46:00.214Z,1.50
2023-04-02T18:48:40.869Z,4.10
2023-04-02T18:51:19.807Z,2.40
2023-04-02T18:53:53.074Z,1.20
2023-04-02T18:56:25.807Z,1.60
2023-04-02T18:59:01.489Z,1.80
2023-04-02T19:01:40.102Z,1.50
2023-04-02T19:04:18.878Z,3.20
2023-04-02T19:06:54.823Z,1.50
2023-04-02T19:09:29.147Z,1.00
2023-04-02T19:12:00.507Z,0.80
2023-04-02T19:14:32.384Z,5.00
2023-04-02T19:19:38.780Z,0.90
2023-04-02T19:22:33.549Z,0.90
2023-04-02T19:25:19.662Z,0.70
2023-04-02T19:28:05.758Z,0.80
2023-04-02T19:31:04.743Z,1.00
2023-04-02T19:33:51.291Z,1.00
2023-04-02T19:36:36.268Z,0.70
2023-04-02T19:39:29.086Z,0.90
2023-04-02T19:42:08.031Z,0.80
2023-04-02T19:44:49.395Z,1.00
2023-04-02T19:47:21.552Z,0.90
2023-04-02T19:49:52.807Z,0.80
2023-04-02T19:52:23.957Z,1.00
2023-04-02T19:54:54.950Z,1.00
2023-04-02T19:57:26.168Z,1.30
2023-04-02T19:59:57.366Z,1.10
2023-04-02T20:02:28.521Z,3.40
2023-04-02T20:04:59.457Z,1.40
2023-04-02T20:07:31.590Z,1.90
2023-04-02T20:10:02.840Z,1.20
2023-04-02T20:12:34.735Z,1.40
2023-04-02T20:15:08.495Z,1.10
2023-04-02T20:17:39.737Z,1.30
2023-04-02T20:20:13.723Z,1.70
2023-04-02T20:22:44.929Z,1.60
2023-04-02T20:25:16.173Z,1.40
2023-04-02T20:30:17.344Z,1.10
2023-04-02T20:32:48.870Z,1.20
2023-04-02T20:35:20.427Z,1.40
2023-04-02T20:37:54.048Z,1.70
2023-04-02T20:40:25.340Z,1.80
2023-04-02T20:45:27.989Z,1.10
2023-04-02T20:47:59.162Z,1.30
2023-04-02T20:50:30.353Z,0.90
2023-04-02T20:53:03.335Z,1.00
2023-04-02T20:55:34.323Z,1.10
2023-04-02T20:58:05.465Z,1.30
2023-04-02T21:00:36.606Z,1.70
2023-04-02T21:03:09.899Z,1.40
2023-04-02T21:05:47.171Z,1.60
2023-04-02T21:08:18.571Z,1.40
2023-04-02T21:10:49.637Z,0.90
2023-04-02T21:13:20.870Z,2.00
2023-04-02T21:18:21.625Z,0.90
2023-04-02T21:21:00.791Z,1.00
2023-04-02T21:23:33.010Z,0.90
2023-04-02T21:26:06.565Z,0.90
2023-04-02T21:28:37.837Z,0.90
2023-04-02T21:31:11.764Z,0.80
2023-04-02T21:33:45.124Z,2.30
2023-04-02T21:36:18.245Z,1.70
2023-04-02T21:38:51.580Z,1.20
2023-04-02T21:41:25.182Z,1.40
2023-04-02T21:43:57.874Z,1.00
2023-04-02T21:46:30.626Z,1.20
2023-04-02T21:49:02.291Z,1.70
2023-04-02T21:51:35.792Z,1.30
2023-04-02T21:54:07.800Z,1.20
2023-04-02T21:56:40.501Z,0.90
2023-04-02T21:59:13.352Z,1.30
2023-04-02T22:01:47.127Z,1.10
2023-04-02T22:04:20.946Z,1.60
2023-04-02T22:06:53.276Z,1.00
2023-04-02T22:09:26.252Z,1.40
2023-04-02T22:11:59.854Z,1.00
2023-04-02T22:14:32.064Z,1.00
2023-04-02T22:17:03.666Z,1.40
2023-04-02T22:19:34.941Z,2.30
2023-04-02T22:22:07.003Z,2.50
2023-04-02T22:24:38.123Z,1.60
2023-04-02T22:27:09.425Z,1.10
2023-04-02T22:32:10.401Z,1.80
2023-04-02T22:34:45.876Z,1.60
2023-04-02T22:37:16.863Z,1.70
2023-04-02T22:39:48.167Z,1.70
2023-04-02T22:44:49.422Z,1.50
2023-04-02T22:47:20.827Z,1.60
2023-04-02T22:49:51.971Z,1.50
2023-04-02T22:52:22.909Z,1.80
2023-04-02T22:54:54.173Z,2.00
2023-04-02T22:57:25.089Z,1.90
2023-04-02T22:59:56.336Z,1.80
2023-04-02T23:02:28.036Z,1.60
2023-04-02T23:04:59.186Z,1.90
2023-04-02T23:09:59.898Z,1.90
2023-04-02T23:12:31.196Z,2.50
2023-04-02T23:17:33.712Z,1.60
2023-04-02T23:20:04.928Z,1.40
2023-04-02T23:25:06.842Z,1.50
2023-04-02T23:27:38.295Z,1.50
2023-04-02T23:30:11.056Z,0.70
2023-04-02T23:32:41.994Z,1.20
2023-04-02T23:35:13.083Z,1.30
2023-04-02T23:37:43.941Z,0.90
2023-04-02T23:40:15.322Z,1.00
2023-04-02T23:42:46.416Z,1.20
2023-04-02T23:45:17.861Z,0.90
2023-04-02T23:47:48.985Z,1.40
2023-04-02T23:50:20.166Z,1.20
2023-04-02T23:52:51.304Z,1.00
2023-04-02T23:55:22.212Z,1.00
2023-04-02T23:57:53.284Z,0.90
